Time;durP1;ratioP1;P1;durP2;ratioP2;P2;SDS_P1;SDS_P2;PMS_P1;PMS_P2;Temp;Humidity;BMP_temperature;BMP_pressure;BME280_temperature;BME280_humidity;BME280_pressure;Samples;Min_cycle;Max_cycle;Signal;HPM_P1;HPM_P2
2023/11/10 00:02:22;;;;;;;2.80;0.90;;;13.30;71.30;;;;;;2334560;58;21082;-66
2023/11/10 00:04:49;;;;;;;3.78;1.20;;;13.20;71.30;;;;;;2131073;59;21008;-67
2023/11/10 00:07:19;;;;;;;3.35;1.25;;;13.20;71.40;;;;;;2134223;59;20993;-66
2023/11/10 00:09:46;;;;;;;3.50;1.37;;;13.20;71.50;;;;;;2135444;59;21958;-65
2023/11/10 00:12:12;;;;;;;4.32;1.00;;;13.20;71.50;;;;;;2331689;58;20978;-66
2023/11/10 00:14:42;;;;;;;3.53;1.30;;;13.20;71.60;;;;;;2129385;59;21435;-65
2023/11/10 00:17:11;;;;;;;3.45;0.70;;;13.20;71.60;;;;;;2129730;59;21097;-66
2023/11/10 00:19:38;;;;;;;2.58;0.90;;;13.20;71.70;;;;;;2130175;59;21068;-67
2023/11/10 00:22:04;;;;;;;2.10;0.80;;;13.10;71.70;;;;;;2331750;57;20986;-66
2023/11/10 00:24:33;;;;;;;2.20;0.80;;;13.20;71.80;;;;;;2336621;58;21014;-66
2023/11/10 00:27:00;;;;;;;2.35;0.80;;;13.20;71.90;;;;;;2129182;59;20978;-66
2023/11/10 00:29:27;;;;;;;2.03;0.80;;;13.20;71.90;;;;;;2332161;58;20962;-67
2023/11/10 00:31:53;;;;;;;2.10;0.73;;;13.20;72.00;;;;;;2332350;58;20990;-66
2023/11/10 00:34:19;;;;;;;1.20;0.57;;;13.10;72.00;;;;;;2335828;58;20973;-65
2023/11/10 00:36:46;;;;;;;2.30;0.80;;;13.10;72.00;;;;;;2129987;59;21030;-66
2023/11/10 00:39:15;;;;;;;1.48;0.70;;;13.20;72.10;;;;;;2331573;58;21019;-66
2023/11/10 00:41:45;;;;;;;2.00;0.90;;;13.20;72.10;;;;;;2330660;58;21131;-66
2023/11/10 00:44:11;;;;;;;2.12;0.60;;;13.20;72.10;;;;;;2331551;58;21933;-66
2023/11/10 00:46:38;;;;;;;2.67;0.80;;;13.20;72.20;;;;;;2130884;59;21428;-66
2023/11/10 00:49:06;;;;;;;2.05;0.60;;;13.10;72.10;;;;;;2331235;58;20978;-67
2023/11/10 00:51:32;;;;;;;3.22;0.77;;;13.20;72.20;;;;;;2130205;59;20985;-66
2023/11/10 00:53:59;;;;;;;1.48;0.50;;;13.20;72.20;;;;;;2330802;58;21011;-66
2023/11/10 00:56:26;;;;;;;0.88;0.40;;;13.10;72.10;;;;;;2129984;59;21605;-67
2023/11/10 00:58:54;;;;;;;1.10;0.47;;;13.20;72.20;;;;;;2331439;58;21075;-67
2023/11/10 01:01:22;;;;;;;0.98;0.50;;;13.20;72.20;;;;;;2331980;58;21875;-67
2023/11/10 01:03:50;;;;;;;0.93;0.40;;;13.20;72.30;;;;;;2331050;58;21037;-66
2023/11/10 01:06:17;;;;;;;0.85;0.40;;;13.20;72.30;;;;;;2130113;59;20982;-67
2023/11/10 01:08:43;;;;;;;1.30;0.35;;;13.10;72.20;;;;;;2129823;59;21009;-67
2023/11/10 01:11:09;;;;;;;1.30;0.52;;;13.10;72.20;;;;;;2129778;58;20998;-67
2023/11/10 01:13:36;;;;;;;1.77;0.50;;;13.10;72.20;;;;;;2332530;58;20986;-67
2023/11/10 01:16:02;;;;;;;0.98;0.40;;;13.10;72.10;;;;;;2331265;58;21038;-67
2023/11/10 01:18:29;;;;;;;1.42;0.43;;;13.10;72.10;;;;;;2332342;58;20986;-66
2023/11/10 01:20:56;;;;;;;1.02;0.30;;;13.10;72.00;;;;;;2332903;58;21021;-67
2023/11/10 01:23:23;;;;;;;1.00;0.37;;;13.10;72.00;;;;;;2129816;59;21070;-67
2023/11/10 01:25:49;;;;;;;0.40;0.30;;;13.10;71.90;;;;;;2129694;58;20989;-66
2023/11/10 01:28:15;;;;;;;0.95;0.45;;;13.10;71.90;;;;;;2331315;58;20982;-67
2023/11/10 01:30:42;;;;;;;1.25;0.40;;;13.10;71.90;;;;;;2130136;59;21039;-66
2023/11/10 01:33:09;;;;;;;1.05;0.40;;;13.10;72.00;;;;;;2130019;59;21139;-67
2023/11/10 01:35:35;;;;;;;1.00;0.35;;;13.10;72.00;;;;;;2134183;59;20993;-67
2023/11/10 01:38:01;;;;;;;1.08;0.40;;;13.00;72.00;;;;;;2334591;58;21027;-67
2023/11/10 01:40:28;;;;;;;0.75;0.37;;;13.00;72.10;;;;;;2135992;59;21068;-67
2023/11/10 01:42:54;;;;;;;0.32;0.25;;;13.00;72.10;;;;;;2129682;59;20998;-66
2023/11/10 01:45:23;;;;;;;0.52;0.20;;;13.00;72.10;;;;;;2143742;58;1689529;-66
2023/11/10 01:47:49;;;;;;;1.65;0.40;;;13.00;72.20;;;;;;2129859;59;20978;-66
2023/11/10 01:50:15;;;;;;;2.37;0.40;;;13.00;72.10;;;;;;2130430;58;21042;-67
2023/11/10 01:52:42;;;;;;;1.05;0.40;;;12.90;72.10;;;;;;2129918;59;21832;-66
2023/11/10 01:55:14;;;;;;;0.62;0.32;;;12.90;72.10;;;;;;2130218;59;21005;-67
2023/11/10 01:57:40;;;;;;;0.62;0.30;;;12.90;72.10;;;;;;2136274;59;21814;-66
2023/11/10 02:00:07;;;;;;;0.85;0.35;;;13.00;72.30;;;;;;2130644;59;21035;-67
2023/11/10 02:02:34;;;;;;;1.62;0.60;;;12.90;72.20;;;;;;2332153;58;20962;-67
2023/11/10 02:05:00;;;;;;;0.55;0.30;;;12.90;72.20;;;;;;2129218;59;21038;-66
2023/11/10 02:07:26;;;;;;;0.68;0.32;;;12.80;72.10;;;;;;2331588;58;21330;-67
2023/11/10 02:09:53;;;;;;;0.90;0.40;;;12.90;72.20;;;;;;2331429;58;21021;-67
2023/11/10 02:12:19;;;;;;;0.98;0.30;;;12.80;72.10;;;;;;2130254;58;21058;-66
2023/11/10 02:14:46;;;;;;;0.98;0.30;;;12.80;72.10;;;;;;2132429;59;20978;-67
2023/11/10 02:17:15;;;;;;;1.70;0.32;;;12.80;72.10;;;;;;2336033;57;21021;-67
2023/11/10 02:19:41;;;;;;;1.00;0.30;;;12.80;72.00;;;;;;2331597;58;21082;-67
2023/11/10 02:22:07;;;;;;;1.30;0.40;;;12.80;72.00;;;;;;2335788;59;20981;-67
2023/11/10 02:24:34;;;;;;;1.37;0.40;;;12.80;72.00;;;;;;2130584;59;21042;-68
2023/11/10 02:27:00;;;;;;;4.90;0.40;;;12.80;72.10;;;;;;2129956;59;21026;-67
2023/11/10 02:29:27;;;;;;;1.02;0.40;;;12.70;71.90;;;;;;2130481;59;20962;-67
2023/11/10 02:31:55;;;;;;;1.73;0.40;;;12.70;71.80;;;;;;2330946;58;21878;-66
2023/11/10 02:34:22;;;;;;;0.73;0.30;;;12.70;71.80;;;;;;2331915;58;21013;-67
2023/11/10 02:36:51;;;;;;;2.78;0.30;;;12.70;71.80;;;;;;2130042;58;21010;-67
2023/11/10 02:39:17;;;;;;;0.50;0.25;;;12.70;71.80;;;;;;2331927;58;20973;-67
2023/11/10 02:41:43;;;;;;;1.55;0.47;;;12.70;71.70;;;;;;2331573;58;21425;-67
2023/11/10 02:44:11;;;;;;;1.08;0.20;;;12.60;71.50;;;;;;2331168;58;20983;-66
2023/11/10 02:46:37;;;;;;;0.88;0.30;;;12.60;71.50;;;;;;2331941;58;20994;-67
2023/11/10 02:49:05;;;;;;;1.17;0.50;;;12.60;71.40;;;;;;2129434;59;21333;-67
2023/11/10 02:51:31;;;;;;;0.35;0.20;;;12.60;71.40;;;;;;2138510;58;20962;-66
2023/11/10 02:53:58;;;;;;;0.85;0.20;;;12.50;71.30;;;;;;2337554;58;20981;-67
2023/11/10 02:56:24;;;;;;;0.55;0.20;;;12.50;71.30;;;;;;2331804;58;21534;-66
2023/11/10 02:58:53;;;;;;;1.30;0.28;;;12.50;71.30;;;;;;2330994;58;22014;-66
2023/11/10 03:01:21;;;;;;;0.28;0.10;;;12.50;71.40;;;;;;2129933;59;20986;-68
2023/11/10 03:03:47;;;;;;;0.37;0.10;;;12.40;71.30;;;;;;2135555;59;21364;-65
2023/11/10 03:06:14;;;;;;;1.25;0.17;;;12.40;71.10;;;;;;2138848;59;20991;-66
2023/11/10 03:08:40;;;;;;;0.70;0.22;;;12.40;71.20;;;;;;2131540;59;21003;-67
2023/11/10 03:11:08;;;;;;;0.08;0.08;;;12.30;71.10;;;;;;2128460;59;22560;-67
2023/11/10 03:13:34;;;;;;;0.43;0.20;;;12.30;71.10;;;;;;2332069;58;20958;-68
2023/11/10 03:16:02;;;;;;;0.70;0.20;;;12.30;71.20;;;;;;2136820;59;20946;-67
2023/11/10 03:18:31;;;;;;;0.35;0.15;;;12.20;71.10;;;;;;2130254;59;20986;-67
2023/11/10 03:21:00;;;;;;;0.43;0.20;;;12.20;71.10;;;;;;2331311;58;21467;-68
2023/11/10 03:23:26;;;;;;;1.15;0.30;;;12.20;71.20;;;;;;2332117;58;21851;-67
2023/11/10 03:25:54;;;;;;;0.47;0.20;;;12.20;71.30;;;;;;2332770;58;21883;-67
2023/11/10 03:28:26;;;;;;;0.43;0.15;;;12.10;71.20;;;;;;2336763;59;21062;-66
2023/11/10 03:30:54;;;;;;;0.60;0.20;;;12.20;71.40;;;;;;2130727;58;21100;-65
2023/11/10 03:33:22;;;;;;;0.47;0.20;;;12.10;71.40;;;;;;2130121;59;21038;-67
2023/11/10 03:35:49;;;;;;;1.80;0.25;;;12.10;71.50;;;;;;2332049;58;21459;-66
2023/11/10 03:38:16;;;;;;;0.55;0.25;;;12.10;71.50;;;;;;2330915;58;21830;-67
2023/11/10 03:40:42;;;;;;;0.88;0.17;;;12.10;71.70;;;;;;2331975;58;21033;-66
2023/11/10 03:43:08;;;;;;;0.95;0.30;;;12.10;71.70;;;;;;2129053;59;21391;-66
2023/11/10 03:45:35;;;;;;;1.25;0.20;;;12.10;71.80;;;;;;2129413;59;21047;-67
2023/11/10 03:48:03;;;;;;;1.95;0.25;;;12.00;71.70;;;;;;2129574;59;21030;-67
2023/11/10 03:50:29;;;;;;;1.77;0.30;;;12.00;71.80;;;;;;2129336;59;20966;-67
2023/11/10 03:52:57;;;;;;;0.25;0.20;;;12.00;71.80;;;;;;2330904;58;21031;-66
2023/11/10 03:55:23;;;;;;;1.85;0.20;;;12.00;71.80;;;;;;2331621;58;20974;-67
2023/11/10 03:57:50;;;;;;;3.03;0.40;;;12.00;71.90;;;;;;2137178;59;21046;-66
2023/11/10 04:00:18;;;;;;;1.77;0.35;;;12.00;71.90;;;;;;2133581;59;21834;-66
2023/11/10 04:02:47;;;;;;;0.60;0.20;;;12.00;71.90;;;;;;2331992;58;20990;-66
2023/11/10 04:05:17;;;;;;;0.70;0.25;;;12.00;71.90;;;;;;2129385;59;21683;-67
2023/11/10 04:07:44;;;;;;;1.08;0.30;;;12.00;71.90;;;;;;2130432;59;20978;-67
2023/11/10 04:10:11;;;;;;;0.85;0.30;;;12.00;71.90;;;;;;2121585;60;21379;-67
2023/11/10 04:12:37;;;;;;;0.25;0.20;;;12.10;72.10;;;;;;2130440;59;20953;-67
2023/11/10 04:15:14;;;;;;;2.05;0.40;;;12.00;71.90;;;;;;2129737;59;21038;-67
2023/11/10 04:17:40;;;;;;;1.48;0.50;;;12.00;71.80;;;;;;2130487;59;20974;-67
2023/11/10 04:20:07;;;;;;;1.52;0.43;;;12.00;71.90;;;;;;2330832;57;21057;-67
2023/11/10 04:22:35;;;;;;;0.80;0.28;;;12.00;72.00;;;;;;2129744;59;20966;-68
2023/11/10 04:25:04;;;;;;;0.98;0.30;;;12.00;72.00;;;;;;2330084;58;21770;-67
2023/11/10 04:27:31;;;;;;;1.37;0.37;;;12.00;72.10;;;;;;2331148;58;21009;-67
2023/11/10 04:30:00;;;;;;;0.45;0.20;;;12.00;72.20;;;;;;2136520;59;20989;-67
2023/11/10 04:32:26;;;;;;;1.50;0.35;;;12.00;72.30;;;;;;2331273;58;20978;-65
2023/11/10 04:34:54;;;;;;;2.05;0.60;;;12.00;72.30;;;;;;2134834;59;21016;-67
2023/11/10 04:37:23;;;;;;;2.40;0.80;;;12.00;72.30;;;;;;2332296;58;20985;-67
2023/11/10 04:39:52;;;;;;;3.97;1.10;;;12.00;72.30;;;;;;2129701;59;21514;-68
2023/11/10 04:42:19;;;;;;;1.75;0.65;;;12.00;72.40;;;;;;2128340;59;21484;-67
2023/11/10 04:44:46;;;;;;;1.90;0.60;;;12.00;72.40;;;;;;2135840;58;20994;-66
2023/11/10 04:47:13;;;;;;;1.00;0.30;;;12.00;72.50;;;;;;2131072;59;21388;-67
2023/11/10 04:49:39;;;;;;;0.90;0.40;;;12.00;72.50;;;;;;2130161;58;20973;-67
2023/11/10 04:52:06;;;;;;;1.37;0.30;;;12.00;72.50;;;;;;2128685;58;21163;-67
2023/11/10 04:54:33;;;;;;;2.05;0.40;;;12.00;72.50;;;;;;2133970;58;21034;-66
2023/11/10 04:57:00;;;;;;;1.12;0.35;;;12.00;72.40;;;;;;2133338;59;21562;-66
2023/11/10 04:59:28;;;;;;;1.75;0.22;;;12.00;72.40;;;;;;2133038;59;21006;-68
2023/11/10 05:01:57;;;;;;;1.85;0.50;;;12.00;72.50;;;;;;2134058;59;21014;-68
2023/11/10 05:04:24;;;;;;;1.30;0.60;;;12.10;72.60;;;;;;2129581;59;21445;-68
2023/11/10 05:06:50;;;;;;;1.50;0.45;;;12.00;72.50;;;;;;2130406;59;21674;-67
2023/11/10 05:09:17;;;;;;;0.82;0.40;;;12.10;72.70;;;;;;2331285;58;21061;-67
2023/11/10 05:11:46;;;;;;;1.23;0.30;;;12.10;72.60;;;;;;2334787;58;20982;-68
2023/11/10 05:14:16;;;;;;;0.90;0.35;;;12.10;72.60;;;;;;2332131;58;20942;-67
2023/11/10 05:16:42;;;;;;;0.98;0.40;;;12.10;72.50;;;;;;2129891;58;21151;-67
2023/11/10 05:19:08;;;;;;;0.40;0.20;;;12.10;72.60;;;;;;2128896;58;21031;-66
2023/11/10 05:21:34;;;;;;;0.73;0.30;;;12.10;72.50;;;;;;2129682;58;21019;-68
2023/11/10 05:24:01;;;;;;;0.22;0.20;;;12.10;72.50;;;;;;2330943;58;21010;-67
2023/11/10 05:26:30;;;;;;;0.45;0.20;;;12.10;72.50;;;;;;2132490;58;21058;-68
2023/11/10 05:28:56;;;;;;;0.62;0.28;;;12.10;72.60;;;;;;2129470;58;21053;-67
2023/11/10 05:31:24;;;;;;;1.20;0.20;;;12.00;72.50;;;;;;2330153;58;20986;-67
2023/11/10 05:33:51;;;;;;;0.52;0.20;;;12.10;72.60;;;;;;2337494;58;21472;-67
2023/11/10 05:36:18;;;;;;;0.20;0.10;;;12.10;72.70;;;;;;2335542;58;21147;-67
2023/11/10 05:38:45;;;;;;;0.20;0.20;;;12.10;72.70;;;;;;2332003;58;21045;-67
2023/11/10 05:41:11;;;;;;;0.62;0.30;;;12.10;72.70;;;;;;2332769;58;21012;-68
2023/11/10 05:43:37;;;;;;;0.98;0.30;;;12.10;72.70;;;;;;2129922;59;21025;-67
2023/11/10 05:46:05;;;;;;;1.95;0.40;;;12.10;72.70;;;;;;2133342;59;20966;-66
2023/11/10 05:48:31;;;;;;;0.45;0.20;;;12.20;72.90;;;;;;2133435;59;21169;-67
2023/11/10 05:50:58;;;;;;;0.47;0.20;;;12.10;72.80;;;;;;2331495;58;20986;-68
2023/11/10 05:53:24;;;;;;;0.50;0.30;;;12.20;72.80;;;;;;2330894;58;21792;-67
2023/11/10 05:55:51;;;;;;;0.25;0.20;;;12.10;72.70;;;;;;2134391;59;21495;-67
2023/11/10 05:58:17;;;;;;;0.47;0.30;;;12.10;72.60;;;;;;2128933;58;21432;-68
2023/11/10 06:00:43;;;;;;;0.55;0.35;;;12.10;72.60;;;;;;2129720;59;20950;-67
2023/11/10 06:03:09;;;;;;;1.95;0.40;;;12.10;72.70;;;;;;2330488;58;20973;-67
2023/11/10 06:05:36;;;;;;;1.40;0.52;;;12.10;72.70;;;;;;2129879;58;20997;-67
2023/11/10 06:08:03;;;;;;;1.58;0.60;;;12.10;72.70;;;;;;2331367;58;21170;-67
2023/11/10 06:10:31;;;;;;;0.88;0.40;;;12.10;72.70;;;;;;2129470;59;20977;-68
2023/11/10 06:12:58;;;;;;;0.90;0.50;;;12.10;72.70;;;;;;2331708;57;21833;-66
2023/11/10 06:15:24;;;;;;;0.65;0.37;;;12.10;72.70;;;;;;2337388;58;20985;-67
2023/11/10 06:17:51;;;;;;;0.75;0.40;;;12.20;72.80;;;;;;2129782;59;20990;-67
2023/11/10 06:20:17;;;;;;;1.17;0.30;;;12.10;72.70;;;;;;2133638;59;21724;-67
2023/11/10 06:22:45;;;;;;;0.65;0.30;;;12.10;72.70;;;;;;2132422;59;21085;-66
2023/11/10 06:25:14;;;;;;;2.00;0.75;;;12.20;72.90;;;;;;2129940;59;21033;-67
2023/11/10 06:27:41;;;;;;;6.22;1.50;;;12.10;72.80;;;;;;2136609;59;20997;-68
2023/11/10 06:30:10;;;;;;;15.48;3.12;;;12.20;72.90;;;;;;2129677;58;20970;-66
2023/11/10 06:32:36;;;;;;;13.45;4.68;;;12.20;72.90;;;;;;2130413;58;21034;-67
2023/11/10 06:35:07;;;;;;;13.85;4.62;;;12.20;72.80;;;;;;2336845;58;21021;-67
2023/11/10 06:37:34;;;;;;;9.48;3.45;;;12.20;72.80;;;;;;2337526;59;21030;-67
2023/11/10 06:40:00;;;;;;;6.53;2.28;;;12.20;72.80;;;;;;2136958;58;21079;-68
2023/11/10 06:42:28;;;;;;;5.65;2.20;;;12.20;72.60;;;;;;2335713;59;21044;-68
2023/11/10 06:44:55;;;;;;;3.90;1.60;;;12.20;72.60;;;;;;2315964;59;21077;-66
2023/11/10 06:47:22;;;;;;;3.55;1.17;;;12.20;72.60;;;;;;2330994;58;21070;-68
2023/11/10 06:49:48;;;;;;;2.25;0.73;;;12.20;72.60;;;;;;2138037;59;20990;-67
2023/11/10 06:52:16;;;;;;;3.08;1.15;;;12.10;72.40;;;;;;2129818;59;21853;-67
2023/11/10 06:54:43;;;;;;;2.30;1.02;;;12.20;72.50;;;;;;2129878;58;20982;-68
2023/11/10 06:57:11;;;;;;;2.92;1.35;;;12.10;72.40;;;;;;2130239;59;20974;-66
2023/11/10 06:59:39;;;;;;;2.83;1.20;;;12.10;72.40;;;;;;2129972;59;20993;-68
2023/11/10 07:02:09;;;;;;;2.08;0.70;;;12.10;72.40;;;;;;2330986;58;21030;-67
2023/11/10 07:04:38;;;;;;;1.35;0.65;;;12.10;72.30;;;;;;2331002;58;20978;-66
2023/11/10 07:07:05;;;;;;;1.35;0.52;;;12.10;72.20;;;;;;2129248;59;21065;-66
2023/11/10 07:09:31;;;;;;;1.42;0.62;;;12.10;72.30;;;;;;2129052;59;20966;-66
2023/11/10 07:11:58;;;;;;;2.60;0.60;;;12.10;72.40;;;;;;2129863;59;21753;-67
2023/11/10 07:14:24;;;;;;;0.93;0.40;;;12.10;72.40;;;;;;2129860;58;20965;-66
2023/11/10 07:16:50;;;;;;;1.80;0.50;;;12.10;72.50;;;;;;2335756;59;21455;-67
2023/11/10 07:19:19;;;;;;;1.15;0.40;;;12.10;72.50;;;;;;2331048;58;21473;-67
2023/11/10 07:21:47;;;;;;;1.25;0.43;;;12.10;72.50;;;;;;2331107;58;21034;-68
2023/11/10 07:24:13;;;;;;;2.85;0.70;;;12.10;72.60;;;;;;2331859;58;21041;-66
2023/11/10 07:26:43;;;;;;;1.15;0.45;;;12.10;72.60;;;;;;2130074;59;21798;-66
2023/11/10 07:29:10;;;;;;;2.28;0.45;;;12.10;72.50;;;;;;2330988;58;20982;-66
2023/11/10 07:31:36;;;;;;;1.70;0.55;;;12.10;72.50;;;;;;2331455;57;21037;-66
2023/11/10 07:34:04;;;;;;;1.10;0.37;;;12.10;72.50;;;;;;2331446;58;21055;-66
2023/11/10 07:36:30;;;;;;;1.48;0.40;;;12.10;72.50;;;;;;2129286;58;21356;-66
2023/11/10 07:38:57;;;;;;;2.87;0.50;;;12.10;72.50;;;;;;2331987;58;20953;-66
2023/11/10 07:41:23;;;;;;;1.75;0.73;;;12.10;72.60;;;;;;2330955;58;20989;-68
2023/11/10 07:43:49;;;;;;;0.77;0.30;;;12.10;72.60;;;;;;2331629;58;21053;-67
2023/11/10 07:46:16;;;;;;;1.27;0.52;;;12.10;72.60;;;;;;2331755;58;21047;-66
2023/11/10 07:48:42;;;;;;;1.15;0.30;;;12.10;72.70;;;;;;2130180;59;20969;-67
2023/11/10 07:51:08;;;;;;;1.27;0.40;;;12.10;72.80;;;;;;2129990;59;21021;-67
2023/11/10 07:53:35;;;;;;;0.65;0.30;;;12.10;72.80;;;;;;2137807;58;20990;-68
2023/11/10 07:56:02;;;;;;;0.90;0.28;;;12.10;72.80;;;;;;2331657;58;20994;-68
2023/11/10 07:58:28;;;;;;;1.75;0.40;;;12.10;72.90;;;;;;2136402;59;20926;-67
2023/11/10 08:00:54;;;;;;;1.77;0.50;;;12.10;73.00;;;;;;2130233;59;21054;-67
2023/11/10 08:03:22;;;;;;;1.62;0.50;;;12.20;73.10;;;;;;2129902;59;21877;-68
2023/11/10 08:05:51;;;;;;;1.80;0.50;;;12.20;73.10;;;;;;2331333;58;21702;-67
2023/11/10 08:08:17;;;;;;;1.15;0.40;;;12.20;73.90;;;;;;2135819;58;21038;-67
2023/11/10 08:10:43;;;;;;;2.45;0.50;;;12.20;73.20;;;;;;2335165;58;21075;-66
2023/11/10 08:13:10;;;;;;;1.70;0.55;;;12.20;73.20;;;;;;2337830;59;21050;-67
2023/11/10 08:15:36;;;;;;;2.75;0.50;;;12.20;73.10;;;;;;2332683;58;20970;-67
2023/11/10 08:18:03;;;;;;;3.10;0.82;;;12.20;73.10;;;;;;2130313;59;20985;-66
2023/11/10 08:20:29;;;;;;;1.70;0.60;;;12.30;73.10;;;;;;2130156;58;20994;-66
2023/11/10 08:22:56;;;;;;;1.75;0.70;;;12.30;72.90;;;;;;2130022;59;20977;-68
2023/11/10 08:25:22;;;;;;;2.62;0.70;;;12.30;72.90;;;;;;2330876;58;20990;-67
2023/11/10 08:27:49;;;;;;;1.80;0.70;;;12.30;72.90;;;;;;2130227;59;20982;-68
2023/11/10 08:30:16;;;;;;;1.98;0.70;;;12.30;72.80;;;;;;2130103;59;20974;-67
2023/11/10 08:32:43;;;;;;;0.88;0.43;;;12.30;72.70;;;;;;2130832;58;20997;-67
2023/11/10 08:35:15;;;;;;;1.25;0.50;;;12.30;72.70;;;;;;2332319;58;21211;-67
2023/11/10 08:37:45;;;;;;;2.03;0.50;;;12.30;72.60;;;;;;2132943;58;21831;-66
2023/11/10 08:40:11;;;;;;;1.40;0.50;;;12.30;72.70;;;;;;2330836;58;21050;-68
2023/11/10 08:42:41;;;;;;;1.23;0.47;;;12.30;72.70;;;;;;2331114;58;21013;-66
2023/11/10 08:45:08;;;;;;;1.55;0.60;;;12.30;72.80;;;;;;2331949;58;21395;-67
2023/11/10 08:47:34;;;;;;;2.40;0.60;;;12.30;72.80;;;;;;2331671;58;21515;-67
2023/11/10 08:50:01;;;;;;;1.37;0.50;;;12.30;72.80;;;;;;2129847;58;20957;-69
2023/11/10 08:53:16;;;;;;;1.77;0.50;;;12.30;72.90;;;;;;2129344;59;20989;-66
2023/11/10 08:55:43;;;;;;;1.65;0.50;;;12.30;72.60;;;;;;2336346;58;21021;-66
2023/11/10 08:58:10;;;;;;;0.57;0.30;;;12.30;73.00;;;;;;2332843;58;20965;-68
2023/11/10 09:00:40;;;;;;;1.70;0.45;;;12.40;73.30;;;;;;2331587;58;21566;-68
2023/11/10 09:03:06;;;;;;;0.62;0.30;;;12.40;73.40;;;;;;2129962;59;21885;-68
2023/11/10 09:05:35;;;;;;;0.70;0.30;;;12.40;73.40;;;;;;2334081;58;20965;-67
2023/11/10 09:08:01;;;;;;;1.80;0.50;;;12.40;73.40;;;;;;2332468;58;21806;-68
2023/11/10 09:10:27;;;;;;;0.65;0.32;;;12.50;73.50;;;;;;2331662;58;21050;-65
2023/11/10 09:12:54;;;;;;;1.05;0.35;;;12.50;73.50;;;;;;2332043;58;20985;-67
2023/11/10 09:15:24;;;;;;;1.50;0.40;;;12.50;73.40;;;;;;2130176;58;20986;-68
2023/11/10 09:17:50;;;;;;;1.45;0.40;;;12.50;73.40;;;;;;2331811;58;21034;-68
2023/11/10 09:20:17;;;;;;;1.67;0.25;;;12.50;73.30;;;;;;2332879;58;21062;-67
2023/11/10 09:22:43;;;;;;;2.00;0.62;;;12.50;73.10;;;;;;2133259;59;21388;-66
2023/11/10 09:25:16;;;;;;;1.85;0.57;;;12.60;73.10;;;;;;2129954;59;21013;-67
2023/11/10 09:27:43;;;;;;;1.27;0.68;;;12.60;73.00;;;;;;2315806;59;20986;-67
2023/11/10 09:30:11;;;;;;;1.75;0.50;;;12.60;73.70;;;;;;2331778;58;21274;-67
2023/11/10 09:32:37;;;;;;;1.70;0.60;;;12.60;73.80;;;;;;2331541;57;21035;-67
2023/11/10 09:35:07;;;;;;;1.55;0.50;;;12.70;73.20;;;;;;2334881;58;21102;-68
2023/11/10 09:37:36;;;;;;;0.65;0.40;;;12.70;73.10;;;;;;2131559;59;21023;-67
2023/11/10 09:40:04;;;;;;;0.62;0.30;;;12.70;73.10;;;;;;2137856;58;21066;-67
2023/11/10 09:42:30;;;;;;;2.17;0.98;;;12.70;73.10;;;;;;2134173;59;21103;-66
2023/11/10 09:44:56;;;;;;;2.25;0.80;;;12.70;72.90;;;;;;2337596;59;21045;-66
2023/11/10 09:47:24;;;;;;;2.00;0.75;;;12.70;72.80;;;;;;2130558;58;20986;-67
2023/11/10 09:49:51;;;;;;;1.98;0.60;;;12.70;72.80;;;;;;2331671;58;20986;-68
2023/11/10 09:52:18;;;;;;;1.42;0.40;;;12.70;72.60;;;;;;2131381;59;21087;-67
2023/11/10 09:54:46;;;;;;;0.93;0.30;;;12.80;72.50;;;;;;2129920;59;21042;-67
2023/11/10 09:57:13;;;;;;;1.35;0.43;;;12.80;72.50;;;;;;2332032;58;21035;-67
2023/11/10 09:59:47;;;;;;;0.95;0.40;;;12.70;72.40;;;;;;2331630;58;20990;-67
2023/11/10 10:02:14;;;;;;;1.33;0.40;;;12.80;72.50;;;;;;2331285;58;21040;-67
2023/11/10 10:04:43;;;;;;;1.77;0.62;;;12.80;72.70;;;;;;2129797;58;21030;-68
2023/11/10 10:07:11;;;;;;;0.70;0.28;;;12.80;72.70;;;;;;2331782;58;21826;-66
2023/11/10 10:09:38;;;;;;;1.62;0.60;;;12.80;72.90;;;;;;2130416;58;21003;-66
2023/11/10 10:12:08;;;;;;;1.77;0.50;;;12.80;72.90;;;;;;2331340;58;20990;-67
2023/11/10 10:14:35;;;;;;;1.52;0.55;;;12.80;73.60;;;;;;2130235;59;21014;-67
2023/11/10 10:17:03;;;;;;;1.15;0.30;;;12.80;73.00;;;;;;2130082;59;20997;-67
2023/11/10 10:19:32;;;;;;;0.60;0.30;;;12.90;73.10;;;;;;2332317;58;21283;-67
2023/11/10 10:22:02;;;;;;;0.90;0.47;;;12.90;73.10;;;;;;2130216;58;20970;-68
2023/11/10 10:24:29;;;;;;;0.82;0.30;;;12.90;72.90;;;;;;2332310;58;21062;-67
2023/11/10 10:26:56;;;;;;;3.22;0.40;;;13.00;72.90;;;;;;2330866;58;20990;-68
2023/11/10 10:29:22;;;;;;;0.93;0.40;;;12.90;72.90;;;;;;2332627;57;20942;-67
2023/11/10 10:31:49;;;;;;;0.73;0.30;;;13.00;73.10;;;;;;2336801;59;21400;-67
2023/11/10 10:34:15;;;;;;;0.98;0.30;;;13.00;73.20;;;;;;2336433;58;20998;-66
2023/11/10 10:36:42;;;;;;;1.80;0.32;;;13.10;73.40;;;;;;2132646;59;20970;-66
2023/11/10 10:39:12;;;;;;;1.05;0.37;;;13.10;73.40;;;;;;2331995;57;21520;-66
2023/11/10 10:41:38;;;;;;;1.05;0.40;;;13.10;73.50;;;;;;2336977;59;21069;-68
2023/11/10 10:44:05;;;;;;;2.20;0.40;;;13.20;73.60;;;;;;2333353;58;21503;-68
2023/11/10 10:46:33;;;;;;;0.62;0.40;;;13.20;73.60;;;;;;2331380;58;21081;-67
2023/11/10 10:49:00;;;;;;;1.60;0.70;;;13.20;73.60;;;;;;2130207;59;21579;-67
2023/11/10 10:51:36;;;;;;;1.17;0.40;;;13.30;73.70;;;;;;2129591;59;20986;-66
2023/11/10 10:54:06;;;;;;;1.27;0.50;;;13.30;73.40;;;;;;2331748;58;20946;-66
2023/11/10 10:56:37;;;;;;;1.73;0.50;;;13.40;73.60;;;;;;2129858;59;20981;-67
2023/11/10 10:59:04;;;;;;;1.58;0.60;;;13.40;73.20;;;;;;2331901;58;20978;-67
2023/11/10 11:01:31;;;;;;;1.85;0.43;;;13.50;73.30;;;;;;2338295;58;21004;-67
2023/11/10 11:05:25;;;;;;;1.45;0.50;;;13.50;73.20;;;;;;2132177;59;20950;-67
2023/11/10 11:08:44;;;;;;;2.08;0.98;;;13.60;71.90;;;;;;2331924;58;21047;-67
2023/11/10 11:11:40;;;;;;;3.17;1.00;;;13.60;71.50;;;;;;2129871;59;21475;-66
2023/11/10 11:17:10;;;;;;;1.83;0.60;;;13.60;71.70;;;;;;2130068;59;21033;-67
2023/11/10 11:19:37;;;;;;;2.25;0.50;;;13.60;72.00;;;;;;2136245;59;20993;-66
2023/11/10 11:22:04;;;;;;;1.12;0.43;;;13.60;71.70;;;;;;2337710;58;21027;-68
2023/11/10 11:24:31;;;;;;;2.15;0.73;;;13.60;71.60;;;;;;2332957;58;21054;-68
2023/11/10 11:27:02;;;;;;;1.23;0.30;;;13.60;71.60;;;;;;2333110;58;21050;-66
2023/11/10 11:29:38;;;;;;;1.02;0.40;;;13.50;71.30;;;;;;2332300;58;20954;-66
2023/11/10 11:32:08;;;;;;;1.12;0.32;;;13.50;71.00;;;;;;2331851;58;21040;-68
2023/11/10 11:34:49;;;;;;;1.73;0.50;;;13.50;71.40;;;;;;2331510;58;20970;-66
2023/11/10 11:37:15;;;;;;;1.23;0.40;;;13.50;70.80;;;;;;2141371;58;21011;-68
2023/11/10 11:39:42;;;;;;;1.37;0.47;;;13.50;71.30;;;;;;2107236;59;20990;-67
2023/11/10 11:42:08;;;;;;;1.27;0.52;;;13.50;71.20;;;;;;2337071;58;21046;-66
2023/11/10 11:44:40;;;;;;;1.65;0.45;;;13.50;71.00;;;;;;2331388;58;20986;-66
2023/11/10 11:47:11;;;;;;;2.08;0.50;;;13.50;71.00;;;;;;2333064;58;21471;-67
2023/11/10 11:49:38;;;;;;;1.50;0.50;;;13.50;70.90;;;;;;2333875;58;21315;-67
2023/11/10 11:52:06;;;;;;;1.70;0.52;;;13.50;71.10;;;;;;2129539;59;21747;-67
2023/11/10 11:54:32;;;;;;;1.30;0.50;;;13.50;71.30;;;;;;2130129;59;20989;-68
2023/11/10 11:56:58;;;;;;;2.17;0.70;;;13.50;71.70;;;;;;2133561;59;21030;-66
2023/11/10 11:59:25;;;;;;;1.87;0.50;;;13.50;72.60;;;;;;2137997;60;21792;-67
2023/11/10 12:01:52;;;;;;;2.75;0.60;;;13.50;71.90;;;;;;2137839;58;21018;-67
2023/11/10 12:04:19;;;;;;;1.17;0.50;;;13.50;71.90;;;;;;2331584;58;21033;-68
2023/11/10 12:06:46;;;;;;;2.08;0.62;;;13.60;71.90;;;;;;2331879;58;20973;-67
2023/11/10 12:09:14;;;;;;;5.18;1.33;;;13.60;71.90;;;;;;2330980;58;20986;-67
2023/11/10 12:11:44;;;;;;;5.60;0.90;;;13.60;72.00;;;;;;2130791;59;20978;-67
2023/11/10 12:14:11;;;;;;;4.32;0.85;;;13.60;71.80;;;;;;2331500;58;20985;-68
2023/11/10 12:16:44;;;;;;;4.18;1.00;;;13.70;72.00;;;;;;2130006;59;21041;-67
2023/11/10 12:19:11;;;;;;;1.65;0.70;;;13.70;71.90;;;;;;2137528;59;21013;-67
2023/11/10 12:21:38;;;;;;;1.60;0.62;;;13.70;72.10;;;;;;2137660;59;21163;-67
2023/11/10 12:24:06;;;;;;;2.00;0.55;;;13.80;72.10;;;;;;2334624;58;21047;-67
2023/11/10 12:26:37;;;;;;;1.55;0.60;;;13.80;71.80;;;;;;2132694;59;21045;-68
2023/11/10 12:29:17;;;;;;;2.92;0.70;;;13.80;71.40;;;;;;2329669;58;20985;-68
2023/11/10 12:31:45;;;;;;;2.92;0.70;;;13.90;71.50;;;;;;2130019;59;21070;-67
2023/11/10 12:34:12;;;;;;;2.97;0.57;;;13.90;71.20;;;;;;2329628;58;21106;-68
2023/11/10 12:36:39;;;;;;;3.10;0.98;;;13.90;70.90;;;;;;2331243;58;20978;-65
2023/11/10 12:39:17;;;;;;;4.45;0.80;;;13.90;70.80;;;;;;2129142;59;21575;-66
2023/11/10 12:41:47;;;;;;;1.83;0.60;;;13.90;70.40;;;;;;2331096;58;20958;-66
2023/11/10 12:44:16;;;;;;;1.62;0.60;;;13.90;70.40;;;;;;2138639;59;21926;-67
2023/11/10 12:47:06;;;;;;;2.05;0.52;;;13.90;70.60;;;;;;2134053;59;21006;-66
2023/11/10 12:49:32;;;;;;;2.75;0.60;;;13.90;70.00;;;;;;2331395;58;20978;-67
2023/11/10 12:52:01;;;;;;;2.55;0.70;;;13.90;71.00;;;;;;2129416;59;21034;-67
2023/11/10 12:54:28;;;;;;;5.05;0.70;;;13.90;71.00;;;;;;2131053;59;21447;-66